sensor_id;sensor_type;location;lat;lon;timestamp;pressure;altitude;pressure_sealevel;temperature;humidity
1926;BME280;964;42.606;23.588;2024-03-06T00:00:28;94244.56;;;15.76;43.32
1926;BME280;964;42.606;23.588;2024-03-06T00:02:59;94244.16;;;15.74;43.17
1926;BME280;964;42.606;23.588;2024-03-06T00:05:26;94247.13;;;15.97;42.90
1926;BME280;964;42.606;23.588;2024-03-06T00:07:53;94250.16;;;16.06;42.37
1926;BME280;964;42.606;23.588;2024-03-06T00:10:20;94251.78;;;15.83;43.04
1926;BME280;964;42.606;23.588;2024-03-06T00:12:47;94250.13;;;16.03;42.14
1926;BME280;964;42.606;23.588;2024-03-06T00:15:14;94262.59;;;16.31;42.02
1926;BME280;964;42.606;23.588;2024-03-06T00:17:41;94256.34;;;16.51;42.00
1926;BME280;964;42.606;23.588;2024-03-06T00:20:09;94260.03;;;16.72;41.59
1926;BME280;964;42.606;23.588;2024-03-06T00:22:36;94266.47;;;16.81;41.02
1926;BME280;964;42.606;23.588;2024-03-06T00:25:04;94271.06;;;16.77;41.22
1926;BME280;964;42.606;23.588;2024-03-06T00:27:31;94263.56;;;16.58;41.68
1926;BME280;964;42.606;23.588;2024-03-06T00:29:58;94268.28;;;16.36;41.65
1926;BME280;964;42.606;23.588;2024-03-06T00:32:25;94259.81;;;16.45;41.67
1926;BME280;964;42.606;23.588;2024-03-06T00:34:54;94266.06;;;16.28;41.04
1926;BME280;964;42.606;23.588;2024-03-06T00:37:22;94260.72;;;16.28;42.40
1926;BME280;964;42.606;23.588;2024-03-06T00:39:49;94264.53;;;16.27;42.20
1926;BME280;964;42.606;23.588;2024-03-06T00:42:16;94258.00;;;15.55;44.33
1926;BME280;964;42.606;23.588;2024-03-06T00:44:43;94271.03;;;15.25;44.27
1926;BME280;964;42.606;23.588;2024-03-06T00:47:10;94267.53;;;15.42;44.23
1926;BME280;964;42.606;23.588;2024-03-06T00:49:36;94262.16;;;15.70;43.61
1926;BME280;964;42.606;23.588;2024-03-06T00:52:04;94272.50;;;15.47;43.73
1926;BME280;964;42.606;23.588;2024-03-06T00:54:32;94267.16;;;15.50;43.92
1926;BME280;964;42.606;23.588;2024-03-06T00:56:59;94273.22;;;15.65;43.25
1926;BME280;964;42.606;23.588;2024-03-06T00:59:27;94266.94;;;16.03;42.39
1926;BME280;964;42.606;23.588;2024-03-06T01:01:54;94266.13;;;16.13;42.23
1926;BME280;964;42.606;23.588;2024-03-06T01:04:21;94267.75;;;15.93;42.23
1926;BME280;964;42.606;23.588;2024-03-06T01:06:48;94265.72;;;16.18;42.93
1926;BME280;964;42.606;23.588;2024-03-06T01:09:15;94279.31;;;15.69;42.72
1926;BME280;964;42.606;23.588;2024-03-06T01:11:43;94274.69;;;15.80;42.68
1926;BME280;964;42.606;23.588;2024-03-06T01:14:12;94272.41;;;15.75;43.58
1926;BME280;964;42.606;23.588;2024-03-06T01:16:39;94276.13;;;16.02;42.59
1926;BME280;964;42.606;23.588;2024-03-06T01:19:09;94278.28;;;16.22;42.81
1926;BME280;964;42.606;23.588;2024-03-06T01:21:36;94271.56;;;16.61;42.01
1926;BME280;964;42.606;23.588;2024-03-06T01:24:02;94274.94;;;16.69;41.78
1926;BME280;964;42.606;23.588;2024-03-06T01:26:29;94281.94;;;16.56;42.06
1926;BME280;964;42.606;23.588;2024-03-06T01:28:58;94281.78;;;16.77;41.63
1926;BME280;964;42.606;23.588;2024-03-06T01:31:24;94275.38;;;16.64;42.29
1926;BME280;964;42.606;23.588;2024-03-06T01:33:51;94278.44;;;17.10;41.91
1926;BME280;964;42.606;23.588;2024-03-06T01:36:18;94272.72;;;17.08;41.35
1926;BME280;964;42.606;23.588;2024-03-06T01:38:45;94283.13;;;16.99;41.72
1926;BME280;964;42.606;23.588;2024-03-06T01:41:11;94281.13;;;17.10;41.37
1926;BME280;964;42.606;23.588;2024-03-06T01:43:38;94281.13;;;17.10;41.48
1926;BME280;964;42.606;23.588;2024-03-06T01:46:06;94273.75;;;17.22;41.18
1926;BME280;964;42.606;23.588;2024-03-06T01:48:34;94275.84;;;17.00;42.42
1926;BME280;964;42.606;23.588;2024-03-06T01:51:02;94265.56;;;17.36;41.91
1926;BME280;964;42.606;23.588;2024-03-06T01:53:31;94265.50;;;17.43;41.38
1926;BME280;964;42.606;23.588;2024-03-06T01:55:59;94264.41;;;17.37;41.57
1926;BME280;964;42.606;23.588;2024-03-06T01:58:26;94268.38;;;17.22;41.50
1926;BME280;964;42.606;23.588;2024-03-06T02:00:53;94263.75;;;17.26;41.74
1926;BME280;964;42.606;23.588;2024-03-06T02:03:21;94277.31;;;16.60;42.38
1926;BME280;964;42.606;23.588;2024-03-06T02:05:49;94279.31;;;16.42;42.83
1926;BME280;964;42.606;23.588;2024-03-06T02:08:17;94287.34;;;16.42;42.76
1926;BME280;964;42.606;23.588;2024-03-06T02:10:44;94285.38;;;15.80;44.20
1926;BME280;964;42.606;23.588;2024-03-06T02:13:12;94286.72;;;16.20;43.99
1926;BME280;964;42.606;23.588;2024-03-06T02:15:40;94285.59;;;16.10;44.22
1926;BME280;964;42.606;23.588;2024-03-06T02:18:07;94282.84;;;16.32;43.56
1926;BME280;964;42.606;23.588;2024-03-06T02:20:37;94280.56;;;16.27;42.72
1926;BME280;964;42.606;23.588;2024-03-06T02:23:04;94283.03;;;15.89;43.87
1926;BME280;964;42.606;23.588;2024-03-06T02:25:31;94284.41;;;14.93;45.78
1926;BME280;964;42.606;23.588;2024-03-06T02:27:58;94285.44;;;14.14;47.76
1926;BME280;964;42.606;23.588;2024-03-06T02:30:25;94278.69;;;14.80;46.42
1926;BME280;964;42.606;23.588;2024-03-06T02:32:51;94282.44;;;15.50;44.77
1926;BME280;964;42.606;23.588;2024-03-06T02:35:18;94287.56;;;15.99;43.45
1926;BME280;964;42.606;23.588;2024-03-06T02:37:47;94282.78;;;15.41;44.43
1926;BME280;964;42.606;23.588;2024-03-06T02:40:13;94285.91;;;14.83;45.07
1926;BME280;964;42.606;23.588;2024-03-06T02:42:40;94287.81;;;14.44;46.03
1926;BME280;964;42.606;23.588;2024-03-06T02:45:07;94292.28;;;14.04;47.21
1926;BME280;964;42.606;23.588;2024-03-06T02:47:34;94292.38;;;14.47;46.42
1926;BME280;964;42.606;23.588;2024-03-06T02:50:01;94287.81;;;15.07;44.83
1926;BME280;964;42.606;23.588;2024-03-06T02:52:28;94291.25;;;14.97;44.76
1926;BME280;964;42.606;23.588;2024-03-06T02:54:57;94284.72;;;15.27;44.37
1926;BME280;964;42.606;23.588;2024-03-06T02:57:26;94293.09;;;15.43;43.77
1926;BME280;964;42.606;23.588;2024-03-06T02:59:53;94281.19;;;15.79;42.86
1926;BME280;964;42.606;23.588;2024-03-06T03:02:20;94289.22;;;15.72;42.21
1926;BME280;964;42.606;23.588;2024-03-06T03:04:46;94290.03;;;15.62;43.05
1926;BME280;964;42.606;23.588;2024-03-06T03:07:14;94296.13;;;15.66;42.55
1926;BME280;964;42.606;23.588;2024-03-06T03:09:41;94297.69;;;15.49;42.91
1926;BME280;964;42.606;23.588;2024-03-06T03:12:09;94302.28;;;15.28;43.34
1926;BME280;964;42.606;23.588;2024-03-06T03:14:36;94305.34;;;15.15;43.57
1926;BME280;964;42.606;23.588;2024-03-06T03:17:03;94291.56;;;15.56;42.80
1926;BME280;964;42.606;23.588;2024-03-06T03:19:30;94287.75;;;15.46;43.17
1926;BME280;964;42.606;23.588;2024-03-06T03:21:57;94284.72;;;15.41;42.73
1926;BME280;964;42.606;23.588;2024-03-06T03:24:24;94288.56;;;15.33;42.81
1926;BME280;964;42.606;23.588;2024-03-06T03:26:52;94289.97;;;15.76;42.49
1926;BME280;964;42.606;23.588;2024-03-06T03:29:20;94292.13;;;16.09;41.78
1926;BME280;964;42.606;23.588;2024-03-06T03:31:47;94296.72;;;16.05;42.02
1926;BME280;964;42.606;23.588;2024-03-06T03:34:14;94294.06;;;16.02;41.50
1926;BME280;964;42.606;23.588;2024-03-06T03:36:41;94299.38;;;16.09;41.24
1926;BME280;964;42.606;23.588;2024-03-06T03:39:09;94298.28;;;15.96;41.17
1926;BME280;964;42.606;23.588;2024-03-06T03:41:43;94308.91;;;16.13;40.88
1926;BME280;964;42.606;23.588;2024-03-06T03:44:11;94307.53;;;15.77;41.44
1926;BME280;964;42.606;23.588;2024-03-06T03:46:39;94322.88;;;14.53;44.05
1926;BME280;964;42.606;23.588;2024-03-06T03:49:06;94320.31;;;13.73;44.69
1926;BME280;964;42.606;23.588;2024-03-06T03:51:34;94325.31;;;13.86;44.11
1926;BME280;964;42.606;23.588;2024-03-06T03:54:01;94319.44;;;14.49;42.17
1926;BME280;964;42.606;23.588;2024-03-06T03:56:28;94325.19;;;14.86;41.09
1926;BME280;964;42.606;23.588;2024-03-06T03:58:56;94326.69;;;15.05;40.58
1926;BME280;964;42.606;23.588;2024-03-06T04:01:22;94323.66;;;14.67;40.94
1926;BME280;964;42.606;23.588;2024-03-06T04:03:51;94327.44;;;14.45;41.04
1926;BME280;964;42.606;23.588;2024-03-06T04:06:18;94333.72;;;13.91;42.40
1926;BME280;964;42.606;23.588;2024-03-06T04:08:45;94329.25;;;14.16;41.96
1926;BME280;964;42.606;23.588;2024-03-06T04:11:12;94327.31;;;14.13;41.87
1926;BME280;964;42.606;23.588;2024-03-06T04:13:38;94331.16;;;14.23;42.38
1926;BME280;964;42.606;23.588;2024-03-06T04:16:06;94336.56;;;14.55;41.17
1926;BME280;964;42.606;23.588;2024-03-06T04:18:34;94338.13;;;14.91;40.70
1926;BME280;964;42.606;23.588;2024-03-06T04:21:04;94339.28;;;14.90;40.70
1926;BME280;964;42.606;23.588;2024-03-06T04:23:32;94343.88;;;15.00;40.41
1926;BME280;964;42.606;23.588;2024-03-06T04:25:59;94341.13;;;14.44;41.12
1926;BME280;964;42.606;23.588;2024-03-06T04:28:26;94353.31;;;14.41;41.48
1926;BME280;964;42.606;23.588;2024-03-06T04:30:53;94350.34;;;14.82;41.04
1926;BME280;964;42.606;23.588;2024-03-06T04:33:20;94362.53;;;14.93;40.67
1926;BME280;964;42.606;23.588;2024-03-06T04:35:47;94357.56;;;15.02;40.50
1926;BME280;964;42.606;23.588;2024-03-06T04:38:15;94359.88;;;15.00;40.45
1926;BME280;964;42.606;23.588;2024-03-06T04:40:42;94366.34;;;14.85;40.73
1926;BME280;964;42.606;23.588;2024-03-06T04:43:10;94362.06;;;14.42;41.49
1926;BME280;964;42.606;23.588;2024-03-06T04:45:37;94366.88;;;14.04;42.39
1926;BME280;964;42.606;23.588;2024-03-06T04:48:05;94360.03;;;14.14;41.74
1926;BME280;964;42.606;23.588;2024-03-06T04:50:32;94369.47;;;13.90;42.59
1926;BME280;964;42.606;23.588;2024-03-06T04:52:59;94369.84;;;13.92;42.86
1926;BME280;964;42.606;23.588;2024-03-06T04:55:28;94368.13;;;14.32;42.31
1926;BME280;964;42.606;23.588;2024-03-06T04:57:56;94366.63;;;14.38;42.04
1926;BME280;964;42.606;23.588;2024-03-06T05:00:23;94371.44;;;14.07;43.47
1926;BME280;964;42.606;23.588;2024-03-06T05:02:50;94379.16;;;14.34;42.84
1926;BME280;964;42.606;23.588;2024-03-06T05:05:16;94377.69;;;14.43;42.48
1926;BME280;964;42.606;23.588;2024-03-06T05:07:44;94367.88;;;14.93;41.88
1926;BME280;964;42.606;23.588;2024-03-06T05:10:10;94374.69;;;14.69;42.97
1926;BME280;964;42.606;23.588;2024-03-06T05:12:38;94367.13;;;15.14;42.29
1926;BME280;964;42.606;23.588;2024-03-06T05:15:05;94382.34;;;15.28;42.27
1926;BME280;964;42.606;23.588;2024-03-06T05:17:33;94380.81;;;15.27;42.33
1926;BME280;964;42.606;23.588;2024-03-06T05:20:01;94383.09;;;15.46;42.44
1926;BME280;964;42.606;23.588;2024-03-06T05:22:29;94385.44;;;15.51;42.10
1926;BME280;964;42.606;23.588;2024-03-06T05:24:55;94378.50;;;15.78;41.92
1926;BME280;964;42.606;23.588;2024-03-06T05:27:24;94388.34;;;16.09;41.46
1926;BME280;964;42.606;23.588;2024-03-06T05:29:52;94392.81;;;16.34;41.33
1926;BME280;964;42.606;23.588;2024-03-06T05:32:20;94386.59;;;16.58;40.99
1926;BME280;964;42.606;23.588;2024-03-06T05:34:46;94384.31;;;16.60;41.75
1926;BME280;964;42.606;23.588;2024-03-06T05:37:14;94391.97;;;16.58;41.59
1926;BME280;964;42.606;23.588;2024-03-06T05:39:41;94396.50;;;16.68;41.60
1926;BME280;964;42.606;23.588;2024-03-06T05:42:08;94393.16;;;17.15;41.19
1926;BME280;964;42.606;23.588;2024-03-06T05:44:35;94392.91;;;17.44;40.44
1926;BME280;964;42.606;23.588;2024-03-06T05:47:04;94400.75;;;17.21;40.26
1926;BME280;964;42.606;23.588;2024-03-06T05:49:32;94395.28;;;17.35;39.88
1926;BME280;964;42.606;23.588;2024-03-06T05:52:00;94395.94;;;17.46;40.88
1926;BME280;964;42.606;23.588;2024-03-06T05:54:28;94393.41;;;17.76;39.01
1926;BME280;964;42.606;23.588;2024-03-06T05:56:58;94388.88;;;17.70;39.09
1926;BME280;964;42.606;23.588;2024-03-06T05:59:25;94388.91;;;18.03;39.19
1926;BME280;964;42.606;23.588;2024-03-06T06:01:52;94383.34;;;18.55;38.46
1926;BME280;964;42.606;23.588;2024-03-06T06:04:20;94381.34;;;18.89;38.23
1926;BME280;964;42.606;23.588;2024-03-06T06:06:47;94384.38;;;18.91;37.94
1926;BME280;964;42.606;23.588;2024-03-06T06:09:14;94386.50;;;18.46;37.17
1926;BME280;964;42.606;23.588;2024-03-06T06:11:42;94405.88;;;17.93;37.94
1926;BME280;964;42.606;23.588;2024-03-06T06:14:09;94410.09;;;17.91;36.82
1926;BME280;964;42.606;23.588;2024-03-06T06:16:37;94417.38;;;17.46;37.55
1926;BME280;964;42.606;23.588;2024-03-06T06:19:06;94422.94;;;17.17;37.22
1926;BME280;964;42.606;23.588;2024-03-06T06:21:34;94423.13;;;16.93;37.21
1926;BME280;964;42.606;23.588;2024-03-06T06:24:03;94425.31;;;16.22;38.43
1926;BME280;964;42.606;23.588;2024-03-06T06:26:30;94426.53;;;15.99;38.88
1926;BME280;964;42.606;23.588;2024-03-06T06:28:57;94428.13;;;15.58;40.43
1926;BME280;964;42.606;23.588;2024-03-06T06:31:24;94433.47;;;15.44;41.29
1926;BME280;964;42.606;23.588;2024-03-06T06:33:52;94422.19;;;16.41;39.98
1926;BME280;964;42.606;23.588;2024-03-06T06:36:19;94417.97;;;17.68;38.89
1926;BME280;964;42.606;23.588;2024-03-06T06:38:47;94408.38;;;18.75;36.85
1926;BME280;964;42.606;23.588;2024-03-06T06:41:14;94397.50;;;19.36;35.93
1926;BME280;964;42.606;23.588;2024-03-06T06:43:41;94392.22;;;20.22;35.47
1926;BME280;964;42.606;23.588;2024-03-06T06:46:08;94398.44;;;20.94;34.08
1926;BME280;964;42.606;23.588;2024-03-06T06:48:35;94397.06;;;21.54;33.86
1926;BME280;964;42.606;23.588;2024-03-06T06:51:02;94396.97;;;21.58;33.21
1926;BME280;964;42.606;23.588;2024-03-06T06:53:29;94399.06;;;21.66;32.86
1926;BME280;964;42.606;23.588;2024-03-06T06:55:57;94396.47;;;21.46;33.41
1926;BME280;964;42.606;23.588;2024-03-06T06:58:24;94398.66;;;21.19;33.72
1926;BME280;964;42.606;23.588;2024-03-06T07:00:53;94401.59;;;21.25;34.58
1926;BME280;964;42.606;23.588;2024-03-06T07:03:20;94408.16;;;20.32;34.75
1926;BME280;964;42.606;23.588;2024-03-06T07:05:48;94408.25;;;20.84;35.02
1926;BME280;964;42.606;23.588;2024-03-06T07:08:15;94405.19;;;20.46;35.38
1926;BME280;964;42.606;23.588;2024-03-06T07:10:42;94402.09;;;21.36;34.25
1926;BME280;964;42.606;23.588;2024-03-06T07:13:10;94409.84;;;21.50;33.63
1926;BME280;964;42.606;23.588;2024-03-06T07:15:37;94398.41;;;21.78;33.77
1926;BME280;964;42.606;23.588;2024-03-06T07:18:04;94404.13;;;21.48;34.00
1926;BME280;964;42.606;23.588;2024-03-06T07:20:31;94405.63;;;20.81;34.60
1926;BME280;964;42.606;23.588;2024-03-06T07:22:58;94398.75;;;21.16;34.34
1926;BME280;964;42.606;23.588;2024-03-06T07:25:24;94394.78;;;22.14;33.46
1926;BME280;964;42.606;23.588;2024-03-06T07:27:51;94397.78;;;22.73;32.84
1926;BME280;964;42.606;23.588;2024-03-06T07:30:19;94386.94;;;23.74;31.36
1926;BME280;964;42.606;23.588;2024-03-06T07:32:47;94380.78;;;24.73;30.18
1926;BME280;964;42.606;23.588;2024-03-06T07:35:14;94380.66;;;25.08;29.45
1926;BME280;964;42.606;23.588;2024-03-06T07:37:41;94365.53;;;26.41;27.76
1926;BME280;964;42.606;23.588;2024-03-06T07:40:10;94372.09;;;26.95;27.60
1926;BME280;964;42.606;23.588;2024-03-06T07:42:37;94365.91;;;27.27;26.69
1926;BME280;964;42.606;23.588;2024-03-06T07:45:05;94363.50;;;28.24;25.50
1926;BME280;964;42.606;23.588;2024-03-06T07:47:34;94367.66;;;27.39;26.23
1926;BME280;964;42.606;23.588;2024-03-06T07:50:03;94360.97;;;28.35;25.44
1926;BME280;964;42.606;23.588;2024-03-06T07:52:31;94363.91;;;28.46;25.42
1926;BME280;964;42.606;23.588;2024-03-06T07:54:58;94363.13;;;29.34;24.81
1926;BME280;964;42.606;23.588;2024-03-06T07:57:26;94372.81;;;28.70;24.72
1926;BME280;964;42.606;23.588;2024-03-06T07:59:53;94367.84;;;29.33;24.84
1926;BME280;964;42.606;23.588;2024-03-06T08:02:20;94374.97;;;29.45;24.53
1926;BME280;964;42.606;23.588;2024-03-06T08:04:49;94369.19;;;29.93;24.24
1926;BME280;964;42.606;23.588;2024-03-06T08:07:16;94375.78;;;29.02;25.05
1926;BME280;964;42.606;23.588;2024-03-06T08:09:43;94374.72;;;29.63;24.52
1926;BME280;964;42.606;23.588;2024-03-06T08:12:10;94377.47;;;29.63;24.54
1926;BME280;964;42.606;23.588;2024-03-06T08:14:37;94378.44;;;30.21;24.07
1926;BME280;964;42.606;23.588;2024-03-06T08:17:04;94381.78;;;28.62;25.14
1926;BME280;964;42.606;23.588;2024-03-06T08:19:30;94379.72;;;29.01;24.26
1926;BME280;964;42.606;23.588;2024-03-06T08:21:58;94382.19;;;29.13;24.39
1926;BME280;964;42.606;23.588;2024-03-06T08:24:25;94372.44;;;30.37;22.84
1926;BME280;964;42.606;23.588;2024-03-06T08:26:52;94356.19;;;31.42;22.68
1926;BME280;964;42.606;23.588;2024-03-06T08:29:19;94354.63;;;31.30;22.69
1926;BME280;964;42.606;23.588;2024-03-06T08:31:46;94346.81;;;33.17;21.78
1926;BME280;964;42.606;23.588;2024-03-06T08:34:13;94344.53;;;33.32;21.28
1926;BME280;964;42.606;23.588;2024-03-06T08:36:42;94352.28;;;33.28;21.39
1926;BME280;964;42.606;23.588;2024-03-06T08:39:10;94346.25;;;33.69;21.24
1926;BME280;964;42.606;23.588;2024-03-06T08:41:38;94342.34;;;34.16;21.31
1926;BME280;964;42.606;23.588;2024-03-06T08:44:05;94355.25;;;33.41;21.56
1926;BME280;964;42.606;23.588;2024-03-06T08:46:32;94353.59;;;34.07;21.01
1926;BME280;964;42.606;23.588;2024-03-06T08:48:59;94375.53;;;30.45;23.99
1926;BME280;964;42.606;23.588;2024-03-06T08:51:27;94378.19;;;29.99;24.34
1926;BME280;964;42.606;23.588;2024-03-06T08:53:53;94381.44;;;30.63;23.75
1926;BME280;964;42.606;23.588;2024-03-06T08:56:21;94365.34;;;31.71;22.65
1926;BME280;964;42.606;23.588;2024-03-06T08:58:49;94372.50;;;32.05;22.54
1926;BME280;964;42.606;23.588;2024-03-06T09:01:16;94377.31;;;31.36;23.24
1926;BME280;964;42.606;23.588;2024-03-06T09:03:42;94366.16;;;31.82;22.66
1926;BME280;964;42.606;23.588;2024-03-06T09:06:09;94373.69;;;30.88;23.64
1926;BME280;964;42.606;23.588;2024-03-06T09:08:36;94365.81;;;32.17;22.79
1926;BME280;964;42.606;23.588;2024-03-06T09:11:02;94374.84;;;32.29;22.33
1926;BME280;964;42.606;23.588;2024-03-06T09:13:31;94359.28;;;33.40;21.22
1926;BME280;964;42.606;23.588;2024-03-06T09:15:58;94356.72;;;32.65;21.54
1926;BME280;964;42.606;23.588;2024-03-06T09:18:24;94351.03;;;33.63;20.96
1926;BME280;964;42.606;23.588;2024-03-06T09:20:51;94349.28;;;32.93;21.62
1926;BME280;964;42.606;23.588;2024-03-06T09:23:18;94353.75;;;33.51;21.46
1926;BME280;964;42.606;23.588;2024-03-06T09:25:44;94346.22;;;33.80;20.51
1926;BME280;964;42.606;23.588;2024-03-06T09:28:12;94349.66;;;33.97;20.88
1926;BME280;964;42.606;23.588;2024-03-06T09:30:40;94340.69;;;34.84;20.32
1926;BME280;964;42.606;23.588;2024-03-06T09:33:08;94345.53;;;33.40;21.12
1926;BME280;964;42.606;23.588;2024-03-06T09:35:35;94344.75;;;33.45;20.80
1926;BME280;964;42.606;23.588;2024-03-06T09:38:01;94340.25;;;33.65;20.84
1926;BME280;964;42.606;23.588;2024-03-06T09:40:28;94339.22;;;34.42;20.27
1926;BME280;964;42.606;23.588;2024-03-06T09:42:56;94326.31;;;34.61;19.79
1926;BME280;964;42.606;23.588;2024-03-06T09:45:24;94328.94;;;33.90;20.62
1926;BME280;964;42.606;23.588;2024-03-06T09:47:52;94328.00;;;33.55;21.16
1926;BME280;964;42.606;23.588;2024-03-06T09:50:23;94336.28;;;33.43;21.05
1926;BME280;964;42.606;23.588;2024-03-06T09:52:52;94332.38;;;33.96;20.73
1926;BME280;964;42.606;23.588;2024-03-06T09:55:21;94343.75;;;33.48;21.00
1926;BME280;964;42.606;23.588;2024-03-06T09:57:49;94333.06;;;33.17;20.84
1926;BME280;964;42.606;23.588;2024-03-06T10:00:16;94331.91;;;33.98;20.13
1926;BME280;964;42.606;23.588;2024-03-06T10:02:50;94335.75;;;33.73;20.12
1926;BME280;964;42.606;23.588;2024-03-06T10:05:22;94329.81;;;33.02;20.52
1926;BME280;964;42.606;23.588;2024-03-06T10:07:51;94331.09;;;33.18;20.81
1926;BME280;964;42.606;23.588;2024-03-06T10:10:19;94338.03;;;31.93;21.32
1926;BME280;964;42.606;23.588;2024-03-06T10:12:46;94321.66;;;33.93;20.21
1926;BME280;964;42.606;23.588;2024-03-06T10:15:14;94320.56;;;32.77;20.97
1926;BME280;964;42.606;23.588;2024-03-06T10:17:41;94328.50;;;32.58;20.85
1926;BME280;964;42.606;23.588;2024-03-06T10:20:18;94328.97;;;31.65;21.45
1926;BME280;964;42.606;23.588;2024-03-06T10:22:49;94330.88;;;32.06;21.66
1926;BME280;964;42.606;23.588;2024-03-06T10:25:18;94316.00;;;32.30;22.27
1926;BME280;964;42.606;23.588;2024-03-06T10:27:46;94313.28;;;32.46;20.97
1926;BME280;964;42.606;23.588;2024-03-06T10:30:13;94308.75;;;32.21;22.11
1926;BME280;964;42.606;23.588;2024-03-06T10:32:41;94312.03;;;31.72;22.59
1926;BME280;964;42.606;23.588;2024-03-06T10:35:18;94304.38;;;32.85;20.93
1926;BME280;964;42.606;23.588;2024-03-06T10:37:45;94304.34;;;32.96;20.60
1926;BME280;964;42.606;23.588;2024-03-06T10:40:15;94300.31;;;33.41;20.51
1926;BME280;964;42.606;23.588;2024-03-06T10:42:44;94305.34;;;32.60;21.49
1926;BME280;964;42.606;23.588;2024-03-06T10:45:13;94310.78;;;31.30;21.92
1926;BME280;964;42.606;23.588;2024-03-06T10:47:40;94296.78;;;32.13;21.54
1926;BME280;964;42.606;23.588;2024-03-06T10:50:08;94307.38;;;31.41;21.64
1926;BME280;964;42.606;23.588;2024-03-06T10:52:36;94289.53;;;32.10;21.33
1926;BME280;964;42.606;23.588;2024-03-06T10:55:05;94291.00;;;32.05;21.10
1926;BME280;964;42.606;23.588;2024-03-06T10:57:34;94291.59;;;30.88;21.60
1926;BME280;964;42.606;23.588;2024-03-06T11:00:03;94302.25;;;30.54;22.22
1926;BME280;964;42.606;23.588;2024-03-06T11:02:31;94282.81;;;31.15;21.50
1926;BME280;964;42.606;23.588;2024-03-06T11:04:59;94272.16;;;31.23;21.39
1926;BME280;964;42.606;23.588;2024-03-06T11:07:26;94280.78;;;31.47;21.05
1926;BME280;964;42.606;23.588;2024-03-06T11:09:53;94269.53;;;32.04;20.84
1926;BME280;964;42.606;23.588;2024-03-06T11:12:35;94263.50;;;31.83;21.14
1926;BME280;964;42.606;23.588;2024-03-06T11:15:09;94264.03;;;31.93;19.92
1926;BME280;964;42.606;23.588;2024-03-06T11:17:37;94262.56;;;31.97;20.27
1926;BME280;964;42.606;23.588;2024-03-06T11:20:17;94259.69;;;31.58;20.32
1926;BME280;964;42.606;23.588;2024-03-06T11:23:03;94251.81;;;31.83;20.07
1926;BME280;964;42.606;23.588;2024-03-06T11:25:58;94248.31;;;31.88;19.54
1926;BME280;964;42.606;23.588;2024-03-06T11:28:28;94241.47;;;32.87;19.93
1926;BME280;964;42.606;23.588;2024-03-06T11:30:57;94236.19;;;33.05;19.45
1926;BME280;964;42.606;23.588;2024-03-06T11:33:29;94235.97;;;32.87;18.92
1926;BME280;964;42.606;23.588;2024-03-06T11:36:15;94237.00;;;32.62;19.73
1926;BME280;964;42.606;23.588;2024-03-06T11:38:46;94234.25;;;32.67;20.00
1926;BME280;964;42.606;23.588;2024-03-06T11:41:12;94224.97;;;32.98;18.81
1926;BME280;964;42.606;23.588;2024-03-06T11:43:43;94221.72;;;33.11;19.08
1926;BME280;964;42.606;23.588;2024-03-06T11:46:10;94224.56;;;34.09;18.13
1926;BME280;964;42.606;23.588;2024-03-06T11:48:38;94218.84;;;33.49;18.48
1926;BME280;964;42.606;23.588;2024-03-06T11:51:05;94219.28;;;33.76;18.03
1926;BME280;964;42.606;23.588;2024-03-06T11:53:33;94219.75;;;33.11;18.71
1926;BME280;964;42.606;23.588;2024-03-06T11:56:00;94204.47;;;33.84;18.24
1926;BME280;964;42.606;23.588;2024-03-06T11:58:27;94212.53;;;34.53;17.55
1926;BME280;964;42.606;23.588;2024-03-06T12:00:56;94207.00;;;34.23;17.84
1926;BME280;964;42.606;23.588;2024-03-06T12:03:23;94211.25;;;33.15;19.06
1926;BME280;964;42.606;23.588;2024-03-06T12:05:50;94214.75;;;32.87;18.30
1926;BME280;964;42.606;23.588;2024-03-06T12:08:18;94207.00;;;34.23;17.80
1926;BME280;964;42.606;23.588;2024-03-06T12:10:46;94205.88;;;33.44;18.13
1926;BME280;964;42.606;23.588;2024-03-06T12:13:13;94203.00;;;32.98;18.96
1926;BME280;964;42.606;23.588;2024-03-06T12:15:42;94198.59;;;33.52;19.29
1926;BME280;964;42.606;23.588;2024-03-06T12:18:11;94200.59;;;34.45;18.85
1926;BME280;964;42.606;23.588;2024-03-06T12:20:41;94199.25;;;34.22;18.56
1926;BME280;964;42.606;23.588;2024-03-06T12:23:19;94195.50;;;35.09;17.35
1926;BME280;964;42.606;23.588;2024-03-06T12:25:48;94188.50;;;35.32;17.80
1926;BME280;964;42.606;23.588;2024-03-06T12:28:15;94185.47;;;35.54;17.75
1926;BME280;964;42.606;23.588;2024-03-06T12:30:43;94183.47;;;35.55;18.00
1926;BME280;964;42.606;23.588;2024-03-06T12:33:16;94182.78;;;35.30;17.83
1926;BME280;964;42.606;23.588;2024-03-06T12:35:43;94169.00;;;36.05;16.75
1926;BME280;964;42.606;23.588;2024-03-06T12:38:13;94178.84;;;34.41;17.80
1926;BME280;964;42.606;23.588;2024-03-06T12:40:40;94178.84;;;33.60;18.41
1926;BME280;964;42.606;23.588;2024-03-06T12:43:08;94177.94;;;34.58;18.62
1926;BME280;964;42.606;23.588;2024-03-06T12:45:36;94174.97;;;34.85;17.26
1926;BME280;964;42.606;23.588;2024-03-06T12:48:03;94173.06;;;33.69;19.12
1926;BME280;964;42.606;23.588;2024-03-06T12:50:31;94173.06;;;34.75;18.55
1926;BME280;964;42.606;23.588;2024-03-06T12:52:58;94170.28;;;35.48;16.67
1926;BME280;964;42.606;23.588;2024-03-06T12:55:25;94175.00;;;34.80;17.91
1926;BME280;964;42.606;23.588;2024-03-06T12:57:51;94164.91;;;35.36;18.28
1926;BME280;964;42.606;23.588;2024-03-06T13:00:19;94165.53;;;35.48;16.90
1926;BME280;964;42.606;23.588;2024-03-06T13:02:46;94182.84;;;32.12;19.78
1926;BME280;964;42.606;23.588;2024-03-06T13:05:12;94189.84;;;30.89;21.19
1926;BME280;964;42.606;23.588;2024-03-06T13:07:42;94199.53;;;30.22;21.80
1926;BME280;964;42.606;23.588;2024-03-06T13:10:10;94200.66;;;29.38;22.57
1926;BME280;964;42.606;23.588;2024-03-06T13:12:37;94209.38;;;27.17;25.01
1926;BME280;964;42.606;23.588;2024-03-06T13:15:04;94225.09;;;25.96;26.53
1926;BME280;964;42.606;23.588;2024-03-06T13:17:33;94212.47;;;26.35;26.06
1926;BME280;964;42.606;23.588;2024-03-06T13:20:00;94222.84;;;25.76;26.84
1926;BME280;964;42.606;23.588;2024-03-06T13:22:27;94223.16;;;25.51;27.20
1926;BME280;964;42.606;23.588;2024-03-06T13:24:55;94222.34;;;26.14;26.54